createdAt,value
2024-02-16T00:01:23.000Z,0
2024-02-16T00:02:54.000Z,0
2024-02-16T00:04:24.000Z,0
2024-02-16T00:05:55.000Z,0
2024-02-16T00:07:25.000Z,0
2024-02-16T00:08:56.000Z,0
2024-02-16T00:10:26.000Z,0
2024-02-16T00:11:43.000Z,0
2024-02-16T00:13:00.000Z,0
2024-02-16T00:14:31.000Z,0
2024-02-16T00:16:01.000Z,0
2024-02-16T00:17:32.000Z,0
2024-02-16T00:19:02.000Z,0
2024-02-16T00:20:33.000Z,0
2024-02-16T00:22:03.000Z,0
2024-02-16T00:23:34.000Z,0
2024-02-16T00:25:04.000Z,0
2024-02-16T00:26:35.000Z,0
2024-02-16T00:27:52.000Z,0
2024-02-16T00:29:09.000Z,0
2024-02-16T00:30:40.000Z,0
2024-02-16T00:32:10.000Z,0
2024-02-16T00:33:41.000Z,0
2024-02-16T00:35:11.000Z,0
2024-02-16T00:36:42.000Z,0
2024-02-16T00:38:12.000Z,0
2024-02-16T00:39:43.000Z,0
2024-02-16T00:41:13.000Z,0
2024-02-16T00:42:44.141Z,0
2024-02-16T00:44:01.000Z,0
2024-02-16T00:45:18.000Z,0
2024-02-16T00:46:48.000Z,0
2024-02-16T00:48:19.000Z,0
2024-02-16T00:49:49.000Z,0
2024-02-16T00:51:20.000Z,0
2024-02-16T00:52:50.000Z,0
2024-02-16T00:54:21.000Z,0
2024-02-16T00:55:51.000Z,0
2024-02-16T00:57:22.000Z,0
2024-02-16T00:58:52.000Z,0
2024-02-16T01:00:09.000Z,0
2024-02-16T01:01:26.000Z,0
2024-02-16T01:02:57.000Z,0
2024-02-16T01:04:27.000Z,0
2024-02-16T01:05:58.000Z,0
2024-02-16T01:07:28.000Z,0
2024-02-16T01:08:59.000Z,0
2024-02-16T01:10:29.000Z,0
2024-02-16T01:12:00.000Z,0
2024-02-16T01:13:30.000Z,0
2024-02-16T01:15:01.000Z,0
2024-02-16T01:16:18.000Z,0
2024-02-16T01:17:35.000Z,0
2024-02-16T01:19:05.000Z,0
2024-02-16T01:20:36.000Z,0
2024-02-16T01:22:07.000Z,0
2024-02-16T01:23:37.000Z,0
2024-02-16T01:25:08.000Z,0
2024-02-16T01:26:38.000Z,0
2024-02-16T01:28:09.000Z,0
2024-02-16T01:29:39.000Z,0
2024-02-16T01:31:10.000Z,0
2024-02-16T01:32:27.000Z,0
2024-02-16T01:33:44.000Z,0
2024-02-16T01:35:14.000Z,0
2024-02-16T01:36:45.000Z,0
2024-02-16T01:38:15.000Z,0
2024-02-16T01:39:46.000Z,0
2024-02-16T01:41:16.000Z,0
2024-02-16T01:42:47.000Z,0
2024-02-16T01:44:17.000Z,0
2024-02-16T01:45:48.000Z,0
2024-02-16T01:47:18.000Z,0
2024-02-16T01:48:35.000Z,0
2024-02-16T01:49:52.000Z,0
2024-02-16T01:51:22.000Z,0
2024-02-16T01:53:01.000Z,0
2024-02-16T01:54:32.000Z,0
2024-02-16T01:56:02.000Z,0
2024-02-16T01:57:33.000Z,0
2024-02-16T01:59:03.000Z,0
2024-02-16T02:00:34.000Z,0
2024-02-16T02:02:04.000Z,0
2024-02-16T02:03:35.000Z,0
2024-02-16T02:04:52.000Z,0
2024-02-16T02:06:09.000Z,0
2024-02-16T02:07:39.000Z,0
2024-02-16T02:09:10.000Z,0
2024-02-16T02:10:40.000Z,0
2024-02-16T02:12:11.000Z,0
2024-02-16T02:13:41.000Z,0
2024-02-16T02:15:12.000Z,0
2024-02-16T02:16:42.000Z,0
2024-02-16T02:18:13.000Z,0
2024-02-16T02:19:43.000Z,0
2024-02-16T02:21:00.000Z,0
2024-02-16T02:22:17.000Z,0
2024-02-16T02:23:48.000Z,0
2024-02-16T02:25:18.000Z,0
2024-02-16T02:26:49.000Z,0
2024-02-16T02:28:19.000Z,0
2024-02-16T02:29:50.000Z,0
2024-02-16T02:31:20.000Z,0
2024-02-16T02:32:51.000Z,0
2024-02-16T02:34:21.000Z,0
2024-02-16T02:35:52.000Z,0
2024-02-16T02:37:09.000Z,0
2024-02-16T02:38:26.000Z,0
2024-02-16T02:39:56.000Z,0
2024-02-16T02:41:27.000Z,0
2024-02-16T02:42:57.000Z,0
2024-02-16T02:44:28.000Z,0
2024-02-16T02:45:58.000Z,0
2024-02-16T02:47:29.000Z,0
2024-02-16T02:49:00.000Z,0
2024-02-16T02:50:30.000Z,0
2024-02-16T02:52:01.000Z,0
2024-02-16T02:53:18.000Z,0
2024-02-16T02:54:35.000Z,0
2024-02-16T02:56:05.000Z,0
2024-02-16T02:57:36.000Z,0
2024-02-16T02:59:06.000Z,0
2024-02-16T03:00:37.000Z,0
2024-02-16T03:02:07.000Z,0
2024-02-16T03:03:38.000Z,0
2024-02-16T03:05:08.000Z,0
2024-02-16T03:06:39.000Z,0
2024-02-16T03:08:09.000Z,0
2024-02-16T03:09:26.000Z,0
2024-02-16T03:10:43.000Z,0
2024-02-16T03:12:14.000Z,0
2024-02-16T03:13:44.000Z,0
2024-02-16T03:15:15.000Z,0
2024-02-16T03:16:45.000Z,0
2024-02-16T03:18:16.000Z,0
2024-02-16T03:19:46.000Z,0
2024-02-16T03:21:17.000Z,0
2024-02-16T03:22:47.000Z,0
2024-02-16T03:24:18.000Z,0
2024-02-16T03:25:35.000Z,0
2024-02-16T03:26:51.000Z,0
2024-02-16T03:28:22.000Z,0
2024-02-16T03:29:52.000Z,0
2024-02-16T03:31:23.000Z,0
2024-02-16T03:32:53.000Z,0
2024-02-16T03:34:24.000Z,0
2024-02-16T03:35:54.000Z,0
2024-02-16T03:37:25.000Z,0
2024-02-16T03:38:56.000Z,0
2024-02-16T03:40:26.000Z,0
2024-02-16T03:41:43.000Z,0
2024-02-16T03:43:00.000Z,0
2024-02-16T03:44:31.000Z,0
2024-02-16T03:46:01.000Z,0
2024-02-16T03:47:32.000Z,0
2024-02-16T03:49:02.000Z,0
2024-02-16T03:50:33.000Z,0
2024-02-16T03:52:03.000Z,0
2024-02-16T03:53:34.000Z,0
2024-02-16T03:55:04.000Z,0
2024-02-16T03:56:35.000Z,0
2024-02-16T03:57:52.000Z,0
2024-02-16T03:59:09.000Z,0
2024-02-16T04:00:39.000Z,0
2024-02-16T04:02:10.000Z,0
2024-02-16T04:03:40.000Z,0
2024-02-16T04:05:11.000Z,0
2024-02-16T04:06:41.000Z,0
2024-02-16T04:08:12.000Z,0
2024-02-16T04:09:42.000Z,0
2024-02-16T04:11:13.000Z,0
2024-02-16T04:12:43.000Z,0
2024-02-16T04:14:00.000Z,0
2024-02-16T04:15:17.000Z,0
2024-02-16T04:16:48.000Z,0
2024-02-16T04:18:18.000Z,0
2024-02-16T04:19:49.000Z,0
2024-02-16T04:21:19.000Z,0
2024-02-16T04:22:50.000Z,0
2024-02-16T04:24:20.000Z,0
2024-02-16T04:25:51.000Z,0
2024-02-16T04:27:21.000Z,0
2024-02-16T04:28:52.000Z,0
2024-02-16T04:30:09.000Z,0
2024-02-16T04:31:26.000Z,0
2024-02-16T04:32:57.000Z,0
2024-02-16T04:34:27.000Z,0
2024-02-16T04:35:58.000Z,0
2024-02-16T04:37:28.000Z,0
2024-02-16T04:38:59.000Z,0
2024-02-16T04:40:29.000Z,0
2024-02-16T04:42:00.000Z,0
2024-02-16T04:43:30.000Z,0
2024-02-16T04:45:01.000Z,0
2024-02-16T04:46:18.000Z,0
2024-02-16T04:47:34.000Z,0
2024-02-16T04:49:05.000Z,0
2024-02-16T04:50:35.000Z,0
2024-02-16T04:52:06.000Z,0
2024-02-16T04:53:36.000Z,0
2024-02-16T04:55:07.000Z,0
2024-02-16T04:56:37.000Z,0
2024-02-16T04:58:08.000Z,0
2024-02-16T04:59:38.000Z,0
2024-02-16T05:01:09.000Z,0
2024-02-16T05:02:26.000Z,0
2024-02-16T05:03:43.000Z,0
2024-02-16T05:05:13.000Z,0
2024-02-16T05:06:44.000Z,0
2024-02-16T05:08:14.000Z,0
2024-02-16T05:09:45.000Z,0
2024-02-16T05:11:15.000Z,0
2024-02-16T05:12:46.000Z,0
2024-02-16T05:14:16.000Z,0
2024-02-16T05:15:47.000Z,0
2024-02-16T05:17:17.000Z,0
2024-02-16T05:18:34.000Z,0
2024-02-16T05:19:51.000Z,0
2024-02-16T05:21:22.000Z,0
2024-02-16T05:22:53.000Z,0
2024-02-16T05:24:23.000Z,0
2024-02-16T05:25:54.000Z,0
2024-02-16T05:27:24.000Z,0
2024-02-16T05:28:55.000Z,0
2024-02-16T05:30:25.000Z,0
2024-02-16T05:31:56.000Z,0
2024-02-16T05:33:26.000Z,0
2024-02-16T05:34:43.000Z,0
2024-02-16T05:36:00.000Z,0
2024-02-16T05:37:31.000Z,0
2024-02-16T05:39:01.000Z,0
2024-02-16T05:40:32.000Z,0
2024-02-16T05:42:02.000Z,0
2024-02-16T05:45:03.000Z,0
2024-02-16T05:46:34.000Z,0
2024-02-16T05:48:04.000Z,0
2024-02-16T05:49:35.000Z,0
2024-02-16T05:50:52.000Z,0
2024-02-16T05:52:09.000Z,0
2024-02-16T05:55:10.000Z,0
2024-02-16T05:56:40.000Z,0
2024-02-16T05:58:11.000Z,0
2024-02-16T05:59:41.000Z,0
2024-02-16T06:01:12.000Z,0
2024-02-16T06:02:42.000Z,0
2024-02-16T06:04:13.000Z,0
2024-02-16T06:05:43.000Z,0
2024-02-16T06:07:00.000Z,0
2024-02-16T06:08:17.000Z,0
2024-02-16T06:09:48.000Z,0
2024-02-16T06:11:18.000Z,0
2024-02-16T06:12:49.000Z,0
2024-02-16T06:14:19.000Z,0
2024-02-16T06:15:50.000Z,0
2024-02-16T06:17:20.000Z,0
2024-02-16T06:18:51.000Z,0
2024-02-16T06:20:21.000Z,0
2024-02-16T06:23:09.000Z,0
2024-02-16T06:24:26.000Z,0
2024-02-16T06:25:56.000Z,0
2024-02-16T06:27:27.000Z,0
2024-02-16T06:28:57.000Z,0
2024-02-16T06:30:28.000Z,0
2024-02-16T06:31:58.000Z,0
2024-02-16T06:33:29.000Z,5
2024-02-16T06:34:59.000Z,5
2024-02-16T06:36:30.000Z,5
2024-02-16T06:38:00.000Z,5
2024-02-16T06:39:17.000Z,11
2024-02-16T06:40:34.000Z,11
2024-02-16T06:42:05.000Z,16
2024-02-16T06:43:35.000Z,16
2024-02-16T06:45:06.000Z,22
2024-02-16T06:46:36.000Z,28
2024-02-16T06:48:07.000Z,33
2024-02-16T06:49:37.000Z,33
2024-02-16T06:51:16.000Z,33
2024-02-16T06:52:47.000Z,33
2024-02-16T06:54:17.000Z,39
2024-02-16T06:56:51.000Z,39
2024-02-16T06:58:22.000Z,39
2024-02-16T07:01:23.000Z,45
2024-02-16T07:02:53.000Z,45
2024-02-16T07:04:24.000Z,50
2024-02-16T07:05:54.000Z,50
2024-02-16T07:07:25.000Z,56
2024-02-16T07:08:55.000Z,56
2024-02-16T07:10:26.000Z,61
2024-02-16T07:11:43.000Z,67
2024-02-16T07:13:00.000Z,78
2024-02-16T07:14:30.000Z,84
2024-02-16T07:16:01.000Z,95
2024-02-16T07:17:31.000Z,106
2024-02-16T07:19:02.000Z,118
2024-02-16T07:20:32.000Z,118
2024-02-16T07:22:03.000Z,118
2024-02-16T07:25:04.000Z,118
2024-02-16T07:26:34.000Z,118
2024-02-16T07:27:51.000Z,118
2024-02-16T07:29:08.000Z,123
2024-02-16T07:30:38.000Z,123
2024-02-16T07:32:09.000Z,129
2024-02-16T07:33:39.000Z,135
2024-02-16T07:35:10.000Z,140
2024-02-16T07:36:40.000Z,151
2024-02-16T07:41:12.000Z,196
2024-02-16T07:42:43.000Z,202
2024-02-16T07:44:00.000Z,208
2024-02-16T07:45:16.000Z,208
2024-02-16T07:46:47.000Z,202
2024-02-16T07:48:17.000Z,196
2024-02-16T07:49:48.000Z,196
2024-02-16T07:51:18.000Z,191
2024-02-16T07:52:49.000Z,185
2024-02-16T07:55:50.000Z,174
2024-02-16T07:57:20.000Z,174
2024-02-16T08:02:55.000Z,180
2024-02-16T08:04:26.000Z,180
2024-02-16T08:05:56.000Z,191
2024-02-16T08:07:27.000Z,196
2024-02-16T08:08:57.000Z,202
2024-02-16T08:10:28.000Z,208
2024-02-16T08:11:58.000Z,208
2024-02-16T08:13:29.000Z,213
2024-02-16T08:14:59.000Z,219
2024-02-16T08:16:16.000Z,230
2024-02-16T08:17:34.000Z,241
2024-02-16T08:19:04.000Z,258
2024-02-16T08:20:35.000Z,281
2024-02-16T08:22:05.000Z,303
2024-02-16T08:23:36.000Z,326
2024-02-16T08:25:06.000Z,348
2024-02-16T08:28:07.000Z,376
2024-02-16T08:31:08.000Z,376
2024-02-16T08:35:12.000Z,427
2024-02-16T08:36:43.000Z,427
2024-02-16T08:38:13.000Z,416
2024-02-16T08:39:44.000Z,399
2024-02-16T08:42:45.000Z,382
2024-02-16T08:44:15.000Z,388
2024-02-16T08:45:46.000Z,393
2024-02-16T08:47:16.000Z,421
2024-02-16T08:48:33.000Z,461
2024-02-16T08:51:21.000Z,478
2024-02-16T08:52:51.000Z,511
2024-02-16T08:58:53.000Z,579
2024-02-16T09:00:24.000Z,579
2024-02-16T09:03:25.000Z,573
2024-02-16T09:09:00.000Z,579
2024-02-16T09:16:33.000Z,534
2024-02-16T09:18:03.000Z,534
2024-02-16T09:20:51.000Z,511
2024-02-16T09:22:07.000Z,506
2024-02-16T09:23:38.000Z,506
2024-02-16T09:25:08.000Z,511
2024-02-16T09:28:09.000Z,517
2024-02-16T09:29:40.000Z,523
2024-02-16T09:31:10.000Z,545
2024-02-16T09:35:42.000Z,613
2024-02-16T09:36:59.000Z,624
2024-02-16T09:38:16.000Z,630
2024-02-16T09:39:46.000Z,635
2024-02-16T09:41:17.000Z,635
2024-02-16T09:42:47.000Z,630
2024-02-16T09:44:18.000Z,624
2024-02-16T09:45:48.000Z,618
2024-02-16T09:47:19.000Z,613
2024-02-16T09:48:49.000Z,607
2024-02-16T09:50:20.427Z,590
2024-02-16T09:53:07.000Z,562
2024-02-16T09:54:24.000Z,540
2024-02-16T09:55:55.000Z,523
2024-02-16T09:57:26.000Z,506
2024-02-16T09:58:56.000Z,489
2024-02-16T10:00:27.000Z,483
2024-02-16T10:01:57.000Z,489
2024-02-16T10:04:58.000Z,489
2024-02-16T10:06:29.000Z,472
2024-02-16T10:07:59.000Z,455
2024-02-16T10:09:16.000Z,444
2024-02-16T10:10:33.000Z,444
2024-02-16T10:12:04.000Z,444
2024-02-16T10:13:34.000Z,450
2024-02-16T10:15:05.000Z,450
2024-02-16T10:18:06.000Z,450
2024-02-16T10:19:36.000Z,461
2024-02-16T10:21:07.000Z,466
2024-02-16T10:22:37.000Z,466
2024-02-16T10:24:08.000Z,461
2024-02-16T10:25:25.000Z,461
2024-02-16T10:28:12.000Z,466
2024-02-16T10:29:43.000Z,466
2024-02-16T10:31:13.000Z,461
2024-02-16T10:34:14.000Z,461
2024-02-16T10:37:15.000Z,489
2024-02-16T10:38:46.000Z,495
2024-02-16T10:41:33.000Z,495
2024-02-16T10:42:50.000Z,489
2024-02-16T10:44:21.000Z,495
2024-02-16T10:45:51.000Z,500
2024-02-16T10:48:52.000Z,528
2024-02-16T10:51:53.000Z,506
2024-02-16T10:54:54.000Z,483
2024-02-16T10:56:25.000Z,489
2024-02-16T10:57:42.000Z,500
2024-02-16T11:00:29.000Z,495
2024-02-16T11:02:00.000Z,478
2024-02-16T11:05:01.000Z,466
2024-02-16T11:08:02.000Z,517
2024-02-16T11:12:33.000Z,511
2024-02-16T11:13:50.000Z,495
2024-02-16T11:15:07.000Z,478
2024-02-16T11:16:38.000Z,466
2024-02-16T11:24:10.000Z,410
2024-02-16T11:25:41.000Z,399
2024-02-16T11:27:11.000Z,393
2024-02-16T11:28:42.000Z,376
2024-02-16T11:29:59.000Z,360
2024-02-16T11:34:17.000Z,388
2024-02-16T11:35:47.000Z,399
2024-02-16T11:37:18.000Z,405
2024-02-16T11:38:48.000Z,405
2024-02-16T11:40:19.000Z,410
2024-02-16T11:41:49.000Z,427
2024-02-16T11:43:20.000Z,450
2024-02-16T11:47:25.000Z,517
2024-02-16T11:50:34.000Z,556
2024-02-16T11:52:04.000Z,556
2024-02-16T11:55:13.000Z,585
2024-02-16T11:56:44.000Z,590
2024-02-16T11:58:14.000Z,601
2024-02-16T11:59:45.000Z,641
2024-02-16T12:01:13.000Z,697
2024-02-16T12:02:30.000Z,753
2024-02-16T12:04:00.000Z,753
2024-02-16T12:08:32.000Z,691
2024-02-16T12:14:34.000Z,450
2024-02-16T12:17:21.000Z,444
2024-02-16T12:18:38.000Z,461
2024-02-16T12:20:09.000Z,461
2024-02-16T12:24:40.000Z,506
2024-02-16T12:26:11.000Z,495
2024-02-16T12:27:41.000Z,500
2024-02-16T12:30:42.000Z,472
2024-02-16T12:32:13.000Z,450
2024-02-16T12:33:30.000Z,433
2024-02-16T12:34:47.000Z,421
2024-02-16T12:39:18.000Z,466
2024-02-16T12:43:50.000Z,551
2024-02-16T12:45:20.000Z,562
2024-02-16T12:58:28.000Z,461
2024-02-16T13:01:29.000Z,360
2024-02-16T13:05:47.000Z,365
2024-02-16T13:10:05.000Z,354
2024-02-16T13:32:15.000Z,286
2024-02-16T13:38:04.000Z,213
2024-02-16T13:39:21.000Z,241
2024-02-16T13:42:22.000Z,247
2024-02-16T13:48:24.000Z,202
2024-02-16T13:49:55.000Z,174
2024-02-16T13:54:13.000Z,135
2024-02-16T13:57:00.000Z,112
2024-02-16T14:04:33.000Z,135
2024-02-16T14:06:03.000Z,123
2024-02-16T14:13:09.000Z,101
2024-02-16T14:14:39.000Z,95
2024-02-16T14:19:11.000Z,90
2024-02-16T14:22:12.000Z,95
2024-02-16T14:23:42.000Z,95
2024-02-16T14:25:13.000Z,101
2024-02-16T14:26:30.000Z,112
2024-02-16T14:27:47.000Z,157
2024-02-16T14:32:18.000Z,225
2024-02-16T14:33:49.000Z,174
2024-02-16T14:35:19.000Z,146
2024-02-16T14:36:50.000Z,151
2024-02-16T14:39:51.000Z,118
2024-02-16T14:41:22.000Z,123
2024-02-16T14:43:56.000Z,135
2024-02-16T14:45:26.000Z,129
2024-02-16T14:46:57.000Z,146
2024-02-16T14:48:27.000Z,157
2024-02-16T14:49:58.000Z,146
2024-02-16T14:51:28.000Z,146
2024-02-16T14:52:59.000Z,129
2024-02-16T14:56:00.000Z,112
2024-02-16T14:57:30.000Z,106
2024-02-16T14:58:47.000Z,101
2024-02-16T15:01:35.000Z,84
2024-02-16T15:06:06.000Z,95
2024-02-16T15:07:37.000Z,90
2024-02-16T15:09:07.000Z,78
2024-02-16T15:10:38.000Z,84
2024-02-16T15:12:08.000Z,90
2024-02-16T15:13:39.000Z,95
2024-02-16T15:14:56.000Z,101
2024-02-16T15:17:43.000Z,95
2024-02-16T15:22:15.000Z,140
2024-02-16T15:23:45.000Z,146
2024-02-16T15:25:16.000Z,135
2024-02-16T15:26:46.000Z,123
2024-02-16T15:29:47.000Z,106
2024-02-16T15:32:21.000Z,90
2024-02-16T15:36:53.000Z,90
2024-02-16T15:42:55.000Z,78
2024-02-16T15:50:01.000Z,61
2024-02-16T15:51:31.000Z,56
2024-02-16T15:53:02.000Z,50
2024-02-16T15:54:32.000Z,50
2024-02-16T15:56:03.000Z,45
2024-02-16T15:57:33.000Z,39
2024-02-16T16:00:34.000Z,39
2024-02-16T16:04:39.000Z,39
2024-02-16T16:06:09.000Z,39
2024-02-16T16:09:10.000Z,33
2024-02-16T16:10:41.000Z,33
2024-02-16T16:15:12.000Z,33
2024-02-16T16:16:43.000Z,28
2024-02-16T16:20:47.000Z,33
2024-02-16T16:23:48.000Z,28
2024-02-16T16:25:19.000Z,28
2024-02-16T16:28:20.000Z,16
2024-02-16T16:39:57.000Z,11
2024-02-16T16:42:58.000Z,5
2024-02-16T16:44:29.000Z,5
2024-02-16T16:47:30.000Z,5
2024-02-16T16:49:00.000Z,5
2024-02-16T16:52:02.000Z,5
2024-02-16T17:03:00.000Z,0
2024-02-16T17:05:45.000Z,0
2024-02-16T17:11:14.000Z,0
2024-02-16T17:16:45.000Z,0
2024-02-16T17:19:30.000Z,0
2024-02-16T17:25:15.000Z,0
2024-02-16T17:28:00.000Z,0
2024-02-16T17:36:30.000Z,0
2024-02-16T17:42:00.000Z,0
2024-02-16T17:43:17.000Z,0
2024-02-16T17:47:29.000Z,0
2024-02-16T18:01:12.000Z,0
2024-02-16T18:09:26.000Z,0
2024-02-16T18:10:44.000Z,0
2024-02-16T18:17:40.000Z,0
2024-02-16T18:25:54.000Z,0
2024-02-16T18:31:23.000Z,0
2024-02-16T18:34:08.000Z,0
2024-02-16T18:38:10.000Z,0
2024-02-16T18:42:22.000Z,0
2024-02-16T18:47:51.000Z,0
2024-02-16T18:50:36.000Z,0
2024-02-16T18:56:05.000Z,0
2024-02-16T18:58:49.000Z,0
2024-02-16T19:05:37.000Z,0
2024-02-16T19:07:03.000Z,0
2024-02-16T19:09:48.000Z,0
2024-02-16T19:12:33.000Z,0
2024-02-16T19:15:17.000Z,0
2024-02-16T19:18:02.000Z,0
2024-02-16T19:20:47.000Z,0
2024-02-16T19:23:31.000Z,0
2024-02-16T19:26:16.000Z,0
2024-02-16T19:29:00.000Z,0
2024-02-16T19:31:45.000Z,0
2024-02-16T19:33:03.000Z,0
2024-02-16T19:34:30.000Z,0
2024-02-16T19:37:14.000Z,0
2024-02-16T19:39:59.000Z,0
2024-02-16T19:45:28.000Z,0
2024-02-16T19:48:13.000Z,0
2024-02-16T19:53:42.000Z,0
2024-02-16T19:56:27.000Z,0
2024-02-16T19:59:11.000Z,0
2024-02-16T20:00:29.000Z,0
2024-02-16T20:01:56.000Z,0
2024-02-16T20:04:41.000Z,0
2024-02-16T20:07:25.000Z,0
2024-02-16T20:10:10.000Z,0
2024-02-16T20:12:55.000Z,0
2024-02-16T20:15:39.000Z,0
2024-02-16T20:18:24.000Z,0
2024-02-16T20:21:09.000Z,0
2024-02-16T20:26:38.000Z,0
2024-02-16T20:27:56.000Z,0
2024-02-16T20:29:22.000Z,0
2024-02-16T20:34:52.000Z,0
2024-02-16T20:37:36.000Z,0
2024-02-16T20:43:06.000Z,0
2024-02-16T20:45:50.000Z,0
2024-02-16T20:51:20.000Z,0
2024-02-16T20:54:04.000Z,0
2024-02-16T20:55:22.000Z,0
2024-02-16T20:59:33.000Z,0
2024-02-16T21:02:18.000Z,0
2024-02-16T21:07:47.000Z,0
2024-02-16T21:10:32.000Z,0
2024-02-16T21:18:46.000Z,0
2024-02-16T21:22:49.000Z,0
2024-02-16T21:24:15.000Z,0
2024-02-16T21:27:00.000Z,0
2024-02-16T21:32:29.000Z,0
2024-02-16T21:35:14.000Z,0
2024-02-16T21:40:43.000Z,0
2024-02-16T21:43:28.000Z,0
2024-02-16T21:51:42.000Z,0
2024-02-16T21:57:11.000Z,0
2024-02-16T21:59:55.000Z,0
2024-02-16T22:05:25.000Z,0
2024-02-16T22:08:09.000Z,0
2024-02-16T22:13:39.000Z,0
2024-02-16T22:16:23.000Z,0
2024-02-16T22:17:41.000Z,0
2024-02-16T22:21:52.000Z,0
2024-02-16T22:24:37.000Z,0
2024-02-16T22:30:06.000Z,0
2024-02-16T22:32:51.000Z,0
2024-02-16T22:38:20.000Z,0
2024-02-16T22:41:05.000Z,0
2024-02-16T22:45:08.000Z,0
2024-02-16T22:46:34.000Z,0
2024-02-16T22:49:19.000Z,0
2024-02-16T22:54:48.000Z,0
2024-02-16T22:57:33.000Z,0
2024-02-16T23:05:47.000Z,0
2024-02-16T23:08:31.000Z,0
2024-02-16T23:11:16.000Z,0
2024-02-16T23:12:34.000Z,0
2024-02-16T23:14:01.000Z,0
2024-02-16T23:16:45.000Z,0
2024-02-16T23:19:30.000Z,0
2024-02-16T23:22:14.000Z,0
2024-02-16T23:24:59.000Z,0
2024-02-16T23:27:44.000Z,0
2024-02-16T23:30:28.000Z,0
2024-02-16T23:33:13.000Z,0
2024-02-16T23:35:58.000Z,0
2024-02-16T23:38:42.000Z,0
2024-02-16T23:40:00.000Z,0
2024-02-16T23:41:27.000Z,0
2024-02-16T23:44:12.000Z,0
2024-02-16T23:46:56.000Z,0
2024-02-16T23:49:41.000Z,0
2024-02-16T23:52:25.000Z,0
2024-02-16T23:55:10.000Z,0
2024-02-16T23:58:11.000Z,0
